Create Custom Reports and Graphics: Custom Report

Stanford Met Tower

Current Conditions

8/13/22 2:15 PM (-07:00)
Updated Every 15 Minutes
Temp 77.1 °F   1.8
RH 55 %   10
Dew Pt 59.5 °F   3.9
Wind Dir NNE | 18 °
Wind Spd 4.9 mph   3.1
Wind Gust 9.9 mph   4.8
NowCast AQI Value 26 AQI   10
NowCast AQI Status Good
Daily Min Temp 50.6 °F   0.2
Daily Max Temp 78.3 °F   1.8
Daily Max Wind 12.3 mph   2.8
Yest MinT 50.4 °F
Yest MaxT 80.5 °F
Yest MaxGst 16.2 mph
Seasonal Rainfall 0.01 In

Last 48 Hours

Stanford Met Tower

Hourly Data | America/Los_Angeles
as of 8/13/22 2:32 PM PDT
Date & Time Temp (°F) RH (%) Dew Pt (°F) Wind Dir (°) Wind Spd (mph) Wind Gust (mph) Solar Rad (W/m2) Pressure (mb) NowCast AQI Value (AQI) NowCast AQI Status Latest Rain (In) Daily Rain (In) Daily Min Temp (°F) Daily Max Temp (°F)
8/13/22 - 1400 76.8 54 59.1 NNE | 24 6.7 12.3 974 1,016.7 26 Good 0.00 0.00 50.6 78.2
8/13/22 - 1300 76.5 58 60.6 NNE | 15 6.0 11.9 959 1,016.9 24 Good 0.00 0.00 50.6 77.5
8/13/22 - 1200 75.7 55 58.6 NNE | 26 3.0 10.3 886 1,017.8 21 Good 0.00 0.00 50.6 77.4
8/13/22 - 1100 71.7 60 57.1 NE | 46 2.9 8.2 756 1,018.5 21 Good 0.00 0.00 50.6 75.0
8/13/22 - 1000 67.6 67 56.4 NE | 44 1.8 6.0 581 1,019.3 22 Good 0.00 0.00 50.6 71.6
8/13/22 - 0900 63.6 76 56.0 E | 101 2.4 5.5 377 1,019.9 22 Good 0.00 0.00 50.6 66.4
8/13/22 - 0800 55.5 82 50.3 SSW | 206 2.2 6.6 171 1,020.2 18 Good 0.00 0.00 50.6 60.1
8/13/22 - 0700 51.1 85 46.8 SSW | 210 4.8 7.6 17 1,019.8 14 Good 0.00 0.00 50.6 56.7
8/13/22 - 0600 51.5 85 47.3 SSW | 212 4.4 7.2 0 1,019.4 14 Good 0.00 0.00 50.8 56.7
8/13/22 - 0500 52.0 83 46.9 SSW | 213 4.1 7.6 0 1,019.2 13 Good 0.00 0.00 51.7 56.7
8/13/22 - 0400 52.7 83 47.8 SSW | 213 4.1 7.6 0 1,019.1 14 Good 0.00 0.00 52.1 56.7
8/13/22 - 0300 53.7 81 48.0 SSW | 212 3.8 6.8 0 1,019.0 15 Good 0.00 0.00 53.2 56.7
8/13/22 - 0200 54.8 80 48.8 SSW | 199 5.6 7.5 0 1,019.1 15 Good 0.00 0.00 53.8 56.7
8/13/22 - 0100 56.8 77 49.6 SSW | 205 4.7 7.3 0 1,019.3 16 Good 0.00 0.00 50.4 80.5
8/13/22 - 0000 57.8 76 50.5 SSW | 205 4.6 7.9 0 1,019.2 16 Good 0.00 0.00 50.4 80.5
8/12/22 - 2300 59.2 77 52.1 SSW | 208 3.9 6.2 0 1,019.2 16 Good 0.00 0.00 50.4 80.5
8/12/22 - 2200 61.5 75 53.4 WSW | 238 1.1 6.0 0 1,018.9 16 Good 0.00 0.00 50.4 80.5
8/12/22 - 2100 65.8 63 53.0 NW | 326 2.8 7.6 1 1,018.3 14 Good 0.00 0.00 50.4 80.5
8/12/22 - 2000 69.7 57 53.6 NNW | 340 5.2 11.6 77 1,017.6 12 Good 0.00 0.00 50.4 80.5
8/12/22 - 1900 73.8 51 54.3 NNW | 347 6.5 12.6 270 1,017.0 12 Good 0.00 0.00 50.4 80.5
8/12/22 - 1800 76.5 47 54.9 N | 351 6.6 12.1 478 1,016.7 12 Good 0.00 0.00 50.4 80.5
8/12/22 - 1700 77.9 46 55.3 NNW | 343 7.9 14.5 669 1,016.8 12 Good 0.00 0.00 50.4 80.5
8/12/22 - 1600 79.2 44 55.5 NNW | 337 7.9 16.2 822 1,016.6 13 Good 0.00 0.00 50.4 80.5
8/12/22 - 1500 78.8 45 55.7 NNW | 338 8.4 15.1 925 1,016.8 14 Good 0.00 0.00 50.4 80.2
8/12/22 - 1400 78.1 46 55.7 N | 353 7.6 15.1 967 1,017.3 16 Good 0.00 0.00 50.4 79.4
8/12/22 - 1300 77.0 50 56.9 N | 7 5.1 11.8 950 1,017.7 16 Good 0.00 0.00 50.4 78.4
8/12/22 - 1200 73.6 56 56.9 N | 353 3.9 9.9 877 1,018.4 16 Good 0.00 0.00 50.4 76.0
8/12/22 - 1100 70.6 60 56.2 N | 356 4.1 10.1 748 1,019.1 16 Good 0.00 0.00 50.4 73.8
8/12/22 - 1000 67.2 64 54.6 N | 353 2.6 7.5 576 1,019.9 15 Good 0.00 0.00 50.4 69.7
8/12/22 - 0900 64.0 72 54.9 W | 271 0.9 4.2 375 1,020.4 17 Good 0.00 0.00 50.4 66.8
8/12/22 - 0800 56.3 88 52.7 SSW | 201 2.6 5.6 177 1,020.5 21 Good 0.00 0.00 50.4 61.8
8/12/22 - 0700 50.9 92 48.8 SSW | 202 4.1 6.3 21 1,020.4 21 Good 0.00 0.00 50.4 57.2
8/12/22 - 0600 51.1 92 48.9 SW | 219 3.4 6.2 0 1,019.9 19 Good 0.00 0.00 50.5 57.2
8/12/22 - 0500 52.4 90 49.7 SSW | 211 3.6 6.3 0 1,019.7 13 Good 0.00 0.00 51.5 57.2
8/12/22 - 0400 52.9 90 50.1 SW | 214 3.6 6.3 0 1,019.9 13 Good 0.00 0.00 52.1 57.2
8/12/22 - 0300 54.3 87 50.4 SSW | 208 3.6 6.7 0 1,019.8 11 Good 0.00 0.00 52.8 57.2
8/12/22 - 0200 55.7 84 51.0 SW | 219 3.0 6.3 0 1,019.9 10 Good 0.00 0.00 55.0 57.2
8/12/22 - 0100 57.3 82 51.8 SSW | 210 4.3 7.6 0 1,019.9 11 Good 0.00 0.00 52.0 79.9
8/12/22 - 0000 58.1 84 53.2 SSW | 203 4.2 7.3 0 1,019.9 12 Good 0.00 0.00 52.0 79.9
8/11/22 - 2300 60.1 83 55.0 WNW | 285 2.4 4.4 0 1,020.0 13 Good 0.00 0.00 52.0 79.9
8/11/22 - 2200 63.8 74 55.2 NW | 320 3.1 6.2 0 1,019.7 11 Good 0.00 0.00 52.0 79.9
8/11/22 - 2100 66.0 68 55.2 NNW | 341 3.3 7.4 1 1,019.0 9 Good 0.00 0.00 52.0 79.9
8/11/22 - 2000 69.7 60 55.1 NNW | 343 4.3 11.2 77 1,018.2 8 Good 0.00 0.00 52.0 79.9
8/11/22 - 1900 72.4 56 55.7 NNW | 345 7.4 13.5 267 1,017.7 7 Good 0.00 0.00 52.0 79.9
8/11/22 - 1800 76.0 49 55.4 N | 3 8.1 14.4 477 1,017.5 7 Good 0.00 0.00 52.0 79.9
8/11/22 - 1700 77.4 46 54.9 N | 359 8.7 17.2 645 1,017.5 7 Good 0.00 0.00 52.0 79.9
8/11/22 - 1600 78.4 44 54.8 N | 1 9.6 17.6 820 1,017.3 7 Good 0.00 0.00 52.0 79.9
8/11/22 - 1500 78.4 48 57.2 N | 2 8.3 17.9 921 1,017.6 7 Good 0.00 0.00 52.0 79.4
8/11/22 - 1400 76.8 54 59.0 NNE | 20 6.3 15.3 961 1,018.3 9 Good 0.00 0.00 52.0 77.9
Max 79.2 92 60.6 - 9.6 17.9 974 1,020.5 26 - 0.00 0.00 55.0 80.5
Avg 65.3 68 53.5 - 4.7 9.5 343 1,018.7 14 - 0.00 - - -
Min 50.9 44 46.8 - 0.9 4.2 0 1,016.6 7 - 0.00 0.00 50.4 56.7
Total - - - - - - - - - - 0.00 - - -

Last 30 Days

Stanford Met Tower

Daily Data | America/Los_Angeles
as of 8/13/22 2:32 PM PDT
Date Daily Max Temp (°F) Time of Max Temp Daily Min Temp (°F) Time of Min Temp Daily Rain (In) Monthly Rain (In) Seasonal Rainfall (In) Daily Max Wind (mph) Time of Max Wind Max Wind Dir (°) Dew Pt (°F) Max RH (%) Min RH (%) Daily ETo (in) Daily Solar Rad (Cal/cm2) PM2.5 Daily Max (ug/m3) Time of Max PM2.5 Max Pressure (mb) (mb) Time of Max Press Min pressure (mb) (mb) Time of Min Press Max Temp Inversion (°F) Time of Max Temp Inversion Min Temp Inversion (°F) Time of Min Temp Inversion HDDs (°F) CDDs (°F) GDDs (DL) Seas GDDs (DL) Chilling <=45F (hrs) Daily Max Rain Intensity (In/Hr) Time of Max Rain Intensity MinBV Day (V)
8/12/22 80.5 1542 50.4 0621 0.00 0.01 0.01 16.2 1534 NW | 318 53.1 94 39 0.211 682 12.5 0528 1,020.7 0700 1,016.4 1527 3.4 0317 -10.2 1154 4.5 4.5 15.0 1,714 0.0 - - 10.6
8/11/22 79.9 1517 52.0 0640 0.00 0.01 0.01 17.9 1456 NNE | 22 54.8 91 41 0.206 674 5.0 0728 1,021.7 0719 1,017.1 1516 3.1 2235 -9.8 1253 3.8 4.2 15.4 1,699 0.0 - - 11.2
8/10/22 80.6 1634 53.3 0550 0.00 0.01 0.01 17.2 1744 N | 355 56.2 92 46 0.207 674 4.0 0528 1,021.4 0042 1,017.4 1721 3.9 2315 -10.5 1229 3.3 4.9 16.6 1,683 0.0 - - 11.5
8/9/22 81.2 1636 52.0 0545 0.00 0.01 0.01 18.8 1626 NNW | 341 55.2 92 43 0.204 670 4.2 2328 1,019.9 2349 1,014.6 1532 2.5 2304 -10.2 1229 3.8 4.3 15.5 1,667 0.0 - - 11.6
8/8/22 80.1 1525 51.9 0640 0.00 0.01 0.01 21.1 1629 NW | 317 55.0 93 43 0.210 688 4.8 0758 1,020.3 0642 1,014.8 1652 3.0 2249 -10.4 1243 4.0 4.0 15.0 1,651 0.0 - - 11.4
8/7/22 78.2 1701 52.2 0550 0.00 0.01 0.01 15.6 1843 N | 349 55.2 95 48 0.201 678 6.7 0328 1,020.0 0736 1,016.0 1556 3.0 0454 -10.2 1327 3.9 3.4 14.5 1,636 0.0 - - 11.0
8/6/22 76.5 1517 56.4 0053 0.00 0.01 0.01 17.9 1500 N | 7 57.3 90 52 0.192 658 6.5 2228 1,019.0 0812 1,015.3 1837 3.0 0002 -11.0 1206 1.5 3.5 17.0 1,622 0.0 - - 11.4
8/5/22 81.5 1519 61.8 0606 0.00 0.01 0.01 22.8 1648 SSW | 212 58.5 88 50 0.205 662 10.3 0100 1,018.3 0035 1,013.4 1513 0.8 0103 -10.3 1330 1.0 4.0 18.0 1,605 0.0 - - 11.4
8/4/22 84.9 1553 59.4 0523 0.01 0.01 0.01 21.9 1649 SSW | 201 59.0 93 29 0.210 660 14.0 0228 1,015.3 0051 1,011.1 1550 2.2 0416 -10.7 1350 1.2 5.3 19.2 1,587 0.0 0.01 2224 10.5
8/3/22 80.2 1704 59.1 0614 0.00 0.00 0.00 13.4 1224 N | 11 59.5 90 51 0.204 679 11.8 0028 1,018.5 0104 1,011.8 1813 1.6 0045 -10.4 1422 1.2 5.1 18.9 1,568 0.0 - - 10.2
8/2/22 88.3 1529 58.2 0623 0.00 0.00 0.00 13.7 1300 NNE | 19 57.1 90 32 0.188 553 6.0 0758 1,019.5 0615 1,014.4 1549 2.4 0453 -10.1 1303 1.5 7.3 20.8 1,549 0.0 - - 11.1
8/1/22 78.5 1703 61.3 0410 0.00 0.00 0.00 11.9 1451 ENE | 59 59.2 90 52 0.142 468 7.5 0558 1,019.3 0949 1,015.7 1723 3.2 2209 -10.8 1315 1.0 3.8 17.8 1,528 0.0 - - 10.7
7/31/22 75.3 1630 61.8 0611 0.00 0.00 0.00 11.9 1753 NE | 42 58.8 87 60 0.108 367 5.2 0058 1,019.1 2344 1,015.7 1635 0.4 0218 -8.2 1108 1.0 2.3 16.3 1,510 0.0 - - 11.4
7/30/22 78.1 1546 59.3 0625 0.00 0.00 0.00 15.4 1650 WSW | 257 57.7 87 53 0.149 506 1.7 1813 1,017.4 2151 1,013.7 1550 0.9 0617 -11.5 1212 1.8 3.2 16.4 1,494 0.0 - - 11.4
7/29/22 77.9 1541 56.1 0432 0.00 0.00 0.00 14.0 1212 NNE | 27 57.0 91 54 0.164 556 3.0 1628 1,016.3 0854 1,011.8 1712 1.8 0334 -11.1 1224 2.6 3.1 15.5 1,477 0.0 - - 11.2
7/28/22 75.0 1659 55.5 0219 0.00 0.00 0.00 15.1 1314 NE | 53 56.7 94 55 0.184 663 2.3 0343 1,017.6 0207 1,012.8 1612 2.8 0210 -10.8 1313 3.0 2.2 14.2 1,462 0.0 - - 11.3
7/27/22 74.6 1713 57.2 0059 0.00 0.00 0.00 14.4 1531 NE | 50 57.1 92 54 0.189 670 2.3 1143 1,019.2 0913 1,015.1 1525 1.4 0059 -10.5 1309 2.0 2.3 15.3 1,448 0.0 - - 11.2
7/26/22 76.2 1731 60.7 0426 0.00 0.00 0.00 14.4 1509 N | 0 57.3 86 52 0.195 680 5.5 0813 1,018.2 0058 1,013.9 1445 1.5 2129 -10.7 1417 1.6 2.9 16.3 1,433 0.0 - - 11.2
7/25/22 72.2 1649 58.1 0106 0.00 0.00 0.00 14.1 1232 NNE | 24 55.9 88 60 0.183 664 10.7 0758 1,016.5 0917 1,012.5 1820 1.4 2345 -11.0 1327 2.9 1.7 13.8 1,416 0.0 - - 11.2
7/24/22 74.7 1555 53.3 0134 0.00 0.00 0.00 16.2 1442 NNE | 26 55.4 95 55 0.201 710 10.5 0743 1,016.2 0816 1,011.6 1552 2.5 0101 -11.3 1216 3.7 2.3 13.6 1,403 0.0 - - 11.2
7/23/22 73.2 1621 49.9 0459 0.00 0.00 0.00 15.2 1516 NNE | 28 53.7 94 55 0.201 732 10.7 0643 1,017.1 0909 1,012.1 1546 3.4 0547 -11.4 1215 5.0 1.7 11.7 1,389 0.0 - - 10.6
7/22/22 82.9 1617 51.2 0603 0.00 0.00 0.00 14.7 1814 NNE | 16 53.5 94 32 0.219 731 12.2 0728 1,018.2 0700 1,013.5 1653 4.6 2241 -11.7 1218 4.1 4.5 15.4 1,377 0.0 - - 10.3
7/21/22 75.5 1656 55.2 0012 0.00 0.00 0.00 12.1 1613 NE | 39 55.9 92 53 0.197 698 8.8 0713 1,020.1 0839 1,015.7 1831 2.9 0013 -12.0 1304 3.3 2.6 14.2 1,362 0.0 - - 11.2
7/20/22 75.4 1536 54.0 0204 0.00 0.00 0.00 12.9 1353 N | 10 55.4 95 52 0.199 706 7.5 0713 1,021.0 0839 1,017.8 1558 2.5 0119 -11.3 1314 3.9 2.3 13.4 1,348 0.0 - - 11.1
7/19/22 76.4 1508 51.9 0632 0.00 0.00 0.00 12.9 1543 ENE | 65 55.3 94 51 0.204 722 13.5 0113 1,020.0 0834 1,016.0 1530 2.8 0119 -11.1 1239 4.3 2.6 13.3 1,334 0.0 - - 11.3
7/18/22 81.2 1252 55.0 0601 0.00 0.00 0.00 12.7 1410 N | 0 57.5 93 47 0.222 718 19.3 0728 1,018.2 0028 1,013.6 0101 3.4 0423 -10.9 1234 2.6 5.6 18.0 1,321 0.0 - - 11.3
7/17/22 81.6 1655 53.9 0453 0.00 0.00 0.00 11.4 1707 NE | 47 57.4 95 43 0.215 719 16.0 2343 1,014.1 0204 1,010.0 1610 3.3 0210 -11.2 1209 2.7 4.8 17.1 1,303 0.0 - - 11.4
7/16/22 83.4 1643 51.9 0300 0.00 0.00 0.00 11.4 1432 N | 8 56.8 95 42 0.221 714 12.0 0043 1,017.7 0735 1,011.0 1713 3.7 0330 -10.8 1321 3.6 5.7 17.2 1,286 0.0 - - 11.3
7/15/22 78.0 1650 50.6 0620 0.00 0.00 0.00 14.4 1357 NE | 49 53.3 92 42 0.221 750 9.3 0743 1,019.0 0732 1,015.1 1536 2.6 0048 -10.3 1207 4.3 3.4 14.1 1,269 0.0 - - 11.4
7/14/22 81.3 1549 55.5 0051 0.00 0.00 0.00 16.5 1556 NNE | 22 54.7 88 36 0.221 736 12.2 0328 1,018.0 2312 1,013.8 1533 4.2 2345 -10.9 1256 2.3 3.7 16.5 1,254 0.0 - - 11.6
Max 88.3 - 61.8 - 0.01 0.01 0.01 22.8 - - 59.5 95 60 0.222 750 19.3 - 1,021.7 - 1,017.8 - 4.6 - -8.2 - 5.0 7.3 20.8 - 0.0 - - 11.6
Avg - - - - - 0.00 - - - - 56.3 - - - - - - 1,018.6 - 1,014.1 - - - - - - - 15.9 - 0.0 - - -
Min 72.2 - 49.9 - 0.00 0.00 0.00 11.4 - - 53.1 86 29 0.108 367 1.7 - 1,014.1 - 1,010.0 - 0.4 - -12.0 - 1.0 1.7 11.7 - 0.0 - - 10.2
Total - - - - - - - - - - - - - - - - - - - - - - - - - - - 475.8 - 0.0 - - -
Calm: 0.0%
Calm: 0.0%

Climate Summary

Stanford Met Tower

Current Year | Showing 1/1/22 - 8/12/22
as of 8/13/22 2:32 PM PDT
Temperature (°F) Max Wind Gust (mph) Precip (in) Days
Month Days Avg High Avg Low Max Min Avg Max Total Daily Min Temp < 32 Daily Min Temp < 40 Daily Max Temp > 90 Daily Max Temp > 100 Daily Rain > 0.01 Daily Rain > 0.1
Jan 2022 31 62.5 38.1 67.2 28.4 10.5 22 0.16 2 22 0 0 2 1
Feb 2022 28 66.6 36 79.6 27.6 14.5 25.6 0.04 4 23 0 0 1 0
Mar 2022 31 67.2 39.8 83.2 32 17.3 36.5 0.73 0 17 0 0 5 4
Apr 2022 30 69.8 42.3 90.8 35.2 20.1 34.3 1.49 0 7 1 0 7 4
May 2022 31 75.4 45.9 95 37.6 18.6 28.2 0 0 4 1 0 0 0
Jun 2022 30 80.6 51.9 99 45.9 19 24.7 0 0 0 3 0 0 0
Jul 2022 31 77.3 54.6 88.4 46.3 15.8 22.6 0 0 0 0 0 0 0
Aug 2022 12 80.9 55.7 88.3 50.4 17.4 22.8 0.01 0 0 0 0 0 0
Total 224 - - - - - - 2.43 6 73 5 0 15 9
Average 28 71.9 44.8 71.9 44.8 16.6 - 0.3 0.8 9.1 0.6 0 1.9 1.1
Maximum 31 80.9 55.7 99 - - 36.5 1.49 4 23 3 0 7 4
Minimum 12 62.5 36 - 27.6 - - 0 0 0 0 0 0 0

Climate Summary

Stanford Met Tower

Last Year | Showing 1/1/21 - 12/31/21
as of 8/13/22 2:32 PM PDT
Temperature (°F) Max Wind Gust (mph) Precip (in) Days
Month Days Avg High Avg Low Max Min Avg Max Total Daily Min Temp < 32 Daily Min Temp < 40 Daily Max Temp > 90 Daily Max Temp > 100 Daily Rain > 0.01 Daily Rain > 0.1
Jan 2021 31 61.5 39.3 77.7 31 16.4 37.4 3.78 2 16 0 0 7 7
Feb 2021 28 64.3 38.5 77.4 32.8 17.7 29.7 0.57 0 19 0 0 5 2
Mar 2021 31 64.3 36.9 82.6 32.3 19.4 35.2 1.19 0 26 0 0 6 6
Apr 2021 30 69.1 40 84.5 35.2 18 27.2 0 0 14 0 0 0 0
May 2021 31 74.5 45.7 87.4 38.8 18.9 32.1 0 0 1 0 0 0 0
Jun 2021 30 78.2 52.3 101.4 42.2 18 27.9 0.02 0 0 3 1 0 0
Jul 2021 31 78.9 55.5 86.7 48.7 14.5 21.1 0.02 0 0 0 0 0 0
Aug 2021 31 80.1 55.5 96.7 49.2 14.9 24.2 0 0 0 2 0 0 0
Sep 2021 30 80.2 52.1 92.1 45.7 14.3 22.1 0 0 0 3 0 0 0
Oct 2021 31 73 47.7 89.4 39.2 17.8 42.8 1.76 0 1 0 0 6 3
Nov 2021 30 68.3 44.3 76.7 35.7 12.2 26.7 0.18 0 5 0 0 3 0
Dec 2021 31 57.2 40.2 72.9 30.4 16 37.8 6.69 3 14 0 0 16 13
Total 365 - - - - - - 14.21 5 96 8 1 43 31
Average 30.4 70.8 45.7 70.8 45.7 16.5 - 1.18 0.4 8 0.7 0.1 3.6 2.6
Maximum 31 80.2 55.5 101.4 - - 42.8 6.69 3 26 3 1 16 13
Minimum 28 57.2 36.9 - 30.4 - - 0 0 0 0 0 0 0

Climate Summary 2018

Stanford Met Tower

1/1/2018 - 12/31/2018 | Showing 1/1/18 - 12/31/18
as of 8/13/22 2:32 PM PDT
Temperature (°F) Max Wind Gust (mph) Precip (in) Days
Month Days Avg High Avg Low Max Min Avg Max Total Daily Min Temp < 32 Daily Min Temp < 40 Daily Max Temp > 90 Daily Max Temp > 100 Daily Rain > 0.01 Daily Rain > 0.1
Jan 2018 31 64.1 41.9 74 33.4 - - 3.42 0 13 0 0 9 5
Feb 2018 28 69.4 36.9 83.9 26.6 - - 0.33 6 17 0 0 2 1
Mar 2018 31 68.7 41.1 87 32.2 - - 3.53 0 14 0 0 13 10
Apr 2018 30 73.2 43.4 85.7 36 - - 1.38 0 6 0 0 7 3
May 2018 31 75.3 47.2 95.5 40.8 - - 0 0 0 1 0 0 0
Jun 2018 30 84.1 49.6 101.9 42.5 - - 0 0 0 8 1 0 0
Jul 2018 31 85.4 55.9 96.9 51.5 - - 0.02 0 0 6 0 0 0
Aug 2018 31 84.4 53.5 94.5 47.9 - - 0 0 0 7 0 0 0
Sep 2018 28 83.2 48.8 95.7 42.6 13.3 25.1 0 0 0 3 0 0 0
Oct 2018 31 79.9 46.7 88.1 39.6 14.2 22.3 0.05 0 1 0 0 2 0
Nov 2018 30 70.8 40.8 86.5 31.5 14.6 50.5 1.95 1 15 0 0 6 4
Dec 2018 31 61.7 39.4 67.1 31.1 14.8 33.3 1.44 1 20 0 0 7 5
Total 363 - - - - - - 12.12 8 86 25 1 46 28
Average 30.2 75 45.5 75 45.5 14.4 - 1.01 0.7 7.2 2.1 0.1 3.8 2.3
Maximum 31 85.4 55.9 101.9 - - 50.5 3.53 6 20 8 1 13 10
Minimum 28 61.7 36.9 - 26.6 - - 0 0 0 0 0 0 0

Climate Summary 2017

Stanford Met Tower

1/1/2017 - 12/31/2017 | Showing 1/1/17 - 12/31/17
as of 8/13/22 2:32 PM PDT
Temperature (°F) Max Wind Gust (mph) Precip (in) Days
Month Days Avg High Avg Low Max Min Avg Max Total Daily Min Temp < 32 Daily Min Temp < 40 Daily Max Temp > 90 Daily Max Temp > 100 Daily Rain > 0.01 Daily Rain > 0.1
Jan 2017 31 59.2 38.6 67.9 27.2 - - 10.05 5 17 0 0 17 13
Feb 2017 28 63.5 44.2 72.8 31.9 - - 8.52 1 10 0 0 14 12
Mar 2017 31 71.7 43.2 84.4 33 - - 2.7 0 7 0 0 8 7
Apr 2017 30 73.7 44.7 86.2 36.3 - - 2.08 0 5 0 0 9 6
May 2017 31 79.6 48.3 96 41 - - 0.01 0 0 6 0 0 0
Jun 2017 30 84.1 52.1 106.2 42.7 - - 0.04 0 0 7 1 1 0
Jul 2017 31 88.3 53.9 103.6 47.6 - - 0.01 0 0 8 3 0 0
Aug 2017 31 85 56.6 98.6 50.5 - - 0 0 0 7 0 0 0
Sep 2017 30 87.4 54.8 110.8 43.7 - - 0.06 0 0 10 2 1 0
Oct 2017 31 81.7 45.1 95.5 38.6 - - 0.13 0 1 4 0 2 0
Nov 2017 30 68.5 44.8 75.4 35.9 - - 2.67 0 6 0 0 8 4
Dec 2017 31 64.4 33.9 72.8 27.9 - - 0.1 5 31 0 0 2 0
Total 365 - - - - - - 26.37 11 77 42 6 62 42
Average 30.4 75.7 46.7 75.7 46.7 - - 2.2 0.9 6.4 3.5 0.5 5.2 3.5
Maximum 31 88.3 56.6 110.8 - - - 10.05 5 31 10 3 17 13
Minimum 28 59.2 33.9 - 27.2 - - 0 0 0 0 0 0 0